Time;durP1;ratioP1;P1;durP2;ratioP2;P2;SDS_P1;SDS_P2;PMS_P1;PMS_P2;Temp;Humidity;BMP_temperature;BMP_pressure;BME280_temperature;BME280_humidity;BME280_pressure;Samples;Min_cycle;Max_cycle;Signal;HPM_P1;HPM_P2
2022/08/20 00:02:10;;;;;;;36.30;19.67;;;;;;;;;;6229254;28;20107;-49
2022/08/20 00:05:11;;;;;;;37.13;20.45;;;;;;;;;;6225954;28;20629;-49
2022/08/20 00:08:12;;;;;;;;;;;;;;;;;;6224650;28;20038;-51
2022/08/20 00:11:16;;;;;;;35.95;19.33;;;;;;;;;;6220374;28;20380;-49
2022/08/20 00:14:17;;;;;;;33.65;18.92;;;;;;;;;;6215184;28;20049;-49
2022/08/20 00:17:18;;;;;;;34.13;19.53;;;;;;;;;;6219196;28;20152;-51
2022/08/20 00:20:21;;;;;;;33.63;19.20;;;;;;;;;;6218065;28;20848;-50
2022/08/20 00:23:23;;;;;;;35.40;19.10;;;;;;;;;;6213727;28;20053;-49
2022/08/20 00:26:24;;;;;;;36.80;19.13;;;;;;;;;;6216205;28;20054;-51
2022/08/20 00:29:25;;;;;;;34.47;19.40;;;;;;;;;;6215546;28;20061;-49
2022/08/20 00:32:26;;;;;;;35.23;19.70;;;;;;;;;;6217096;28;20083;-49
2022/08/20 00:35:31;;;;;;;33.97;19.03;;;;;;;;;;6216535;28;20079;-48
2022/08/20 00:38:33;;;;;;;37.03;20.10;;;;;;;;;;6218448;28;20081;-49
2022/08/20 00:41:34;;;;;;;35.38;19.88;;;;;;;;;;6216404;28;20148;-49
2022/08/20 00:44:35;;;;;;;32.83;19.20;;;;;;;;;;6214796;28;20056;-48
2022/08/20 00:47:39;;;;;;;34.05;19.10;;;;;;;;;;6204332;28;20072;-50
2022/08/20 00:50:39;;;;;;;35.72;19.70;;;;;;;;;;6194299;28;20046;-49
2022/08/20 00:53:41;;;;;;;35.07;19.60;;;;;;;;;;6191740;28;20099;-49
2022/08/20 00:56:48;;;;;;;;;;;;;;;;;;6193857;28;20048;-51
2022/08/20 00:59:51;;;;;;;37.15;19.65;;;;;;;;;;6195498;28;20064;-50
2022/08/20 01:02:52;;;;;;;37.35;19.30;;;;;;;;;;6192827;28;20049;-49
2022/08/20 01:05:53;;;;;;;39.45;21.70;;;;;;;;;;6191777;28;20051;-50
2022/08/20 01:08:53;;;;;;;39.77;22.73;;;;;;;;;;6191652;28;21129;-50
2022/08/20 01:11:54;;;;;;;37.90;21.40;;;;;;;;;;6191593;28;20239;-51
2022/08/20 01:14:58;;;;;;;38.97;21.23;;;;;;;;;;6189796;28;20057;-48
2022/08/20 01:18:00;;;;;;;41.78;22.30;;;;;;;;;;6192491;28;20584;-52
2022/08/20 01:21:04;;;;;;;36.33;20.83;;;;;;;;;;6196747;28;20060;-54
2022/08/20 01:24:23;;;;;;;38.80;20.98;;;;;;;;;;6194281;28;20144;-51
2022/08/20 01:27:24;;;;;;;36.17;20.23;;;;;;;;;;6191359;28;20077;-51
2022/08/20 01:30:27;;;;;;;37.23;20.53;;;;;;;;;;6210675;28;20437;-57
2022/08/20 01:33:28;;;;;;;37.35;21.35;;;;;;;;;;6208933;28;20054;-51
2022/08/20 01:36:35;;;;;;;40.17;20.23;;;;;;;;;;6191733;28;20153;-50
2022/08/20 01:39:36;;;;;;;34.55;20.17;;;;;;;;;;6208235;28;20069;-51
2022/08/20 01:42:43;;;;;;;35.88;19.88;;;;;;;;;;6213934;28;20394;-50
2022/08/20 01:45:44;;;;;;;41.17;20.75;;;;;;;;;;6210921;28;20121;-51
2022/08/20 01:48:44;;;;;;;37.40;21.13;;;;;;;;;;6211502;28;20050;-52
2022/08/20 01:51:45;;;;;;;40.87;20.30;;;;;;;;;;6210367;28;20038;-51
2022/08/20 01:54:45;;;;;;;33.07;19.67;;;;;;;;;;6214701;28;20431;-51
2022/08/20 01:57:47;;;;;;;30.73;19.13;;;;;;;;;;6211609;28;20042;-61
2022/08/20 02:00:48;;;;;;;39.53;20.58;;;;;;;;;;6191210;28;20042;-50
2022/08/20 02:03:49;;;;;;;36.40;18.30;;;;;;;;;;6191903;28;20826;-51
2022/08/20 02:06:56;;;;;;;35.47;19.58;;;;;;;;;;6190918;28;20141;-50
2022/08/20 02:09:58;;;;;;;36.35;20.20;;;;;;;;;;6191931;28;20113;-53
2022/08/20 02:13:00;;;;;;;41.03;19.77;;;;;;;;;;6202063;28;20141;-53
2022/08/20 02:16:01;;;;;;;36.63;20.10;;;;;;;;;;6209794;28;20053;-53
2022/08/20 02:19:15;;;;;;;36.17;19.63;;;;;;;;;;6210398;28;20076;-51
2022/08/20 02:22:35;;;;;;;37.97;19.73;;;;;;;;;;6208493;28;20121;-54
2022/08/20 02:25:39;;;;;;;37.78;20.17;;;;;;;;;;6208295;28;20076;-60
2022/08/20 02:28:40;;;;;;;35.10;19.25;;;;;;;;;;6197252;28;20347;-60
2022/08/20 02:31:43;;;;;;;33.55;18.35;;;;;;;;;;6192830;28;20053;-60
2022/08/20 02:34:43;;;;;;;30.95;18.38;;;;;;;;;;6197462;28;20042;-60
2022/08/20 02:37:45;;;;;;;38.63;19.45;;;;;;;;;;6195221;28;20062;-61
2022/08/20 02:40:47;;;;;;;36.03;19.55;;;;;;;;;;6197095;28;20042;-57
2022/08/20 02:43:50;;;;;;;35.78;19.55;;;;;;;;;;6193674;28;20062;-50
2022/08/20 02:46:50;;;;;;;35.53;19.48;;;;;;;;;;6202395;28;20054;-55
2022/08/20 02:49:52;;;;;;;34.25;18.85;;;;;;;;;;6224235;28;20052;-61
2022/08/20 02:52:53;;;;;;;37.97;19.88;;;;;;;;;;6229617;28;20029;-61
2022/08/20 02:55:55;;;;;;;34.85;19.55;;;;;;;;;;6230591;28;20050;-53
2022/08/20 02:58:56;;;;;;;34.80;18.80;;;;;;;;;;6222431;28;20042;-50
2022/08/20 03:01:57;;;;;;;34.63;18.67;;;;;;;;;;6225169;28;20072;-56
2022/08/20 03:04:58;;;;;;;36.83;18.63;;;;;;;;;;6224016;28;20046;-51
2022/08/20 03:07:59;;;;;;;33.47;18.30;;;;;;;;;;6224929;28;20076;-50
2022/08/20 03:10:59;;;;;;;32.73;17.23;;;;;;;;;;6222138;28;20525;-59
2022/08/20 03:14:00;;;;;;;38.83;19.57;;;;;;;;;;6226415;28;20038;-55
2022/08/20 03:17:00;;;;;;;36.50;20.17;;;;;;;;;;6221561;28;20049;-60
2022/08/20 03:20:05;;;;;;;33.60;18.73;;;;;;;;;;6221546;28;20037;-52
2022/08/20 03:23:06;;;;;;;41.38;19.42;;;;;;;;;;6222600;28;20292;-53
2022/08/20 03:26:09;;;;;;;35.77;19.00;;;;;;;;;;6217979;28;20042;-59
2022/08/20 03:29:10;;;;;;;37.03;18.15;;;;;;;;;;6229434;28;20041;-51
2022/08/20 03:32:11;;;;;;;35.58;19.15;;;;;;;;;;6228340;28;20075;-58
2022/08/20 03:35:14;;;;;;;30.53;16.90;;;;;;;;;;6226703;28;20525;-52
2022/08/20 03:38:17;;;;;;;31.45;17.15;;;;;;;;;;6224266;28;20058;-53
2022/08/20 03:41:17;;;;;;;34.53;17.70;;;;;;;;;;6222875;28;20516;-51
2022/08/20 03:44:18;;;;;;;33.80;18.90;;;;;;;;;;6220383;28;20058;-50
2022/08/20 03:47:19;;;;;;;33.40;18.23;;;;;;;;;;6223490;28;20061;-54
2022/08/20 03:50:22;;;;;;;32.03;17.53;;;;;;;;;;6223056;28;20770;-55
2022/08/20 03:53:23;;;;;;;31.15;17.77;;;;;;;;;;6223845;28;20424;-51
2022/08/20 03:56:25;;;;;;;31.53;18.17;;;;;;;;;;6222817;28;20140;-50
2022/08/20 03:59:25;;;;;;;31.27;17.15;;;;;;;;;;6221077;28;20050;-54
2022/08/20 04:02:27;;;;;;;30.00;17.37;;;;;;;;;;6223114;28;20052;-55
2022/08/20 04:05:29;;;;;;;35.87;18.47;;;;;;;;;;6225514;28;20049;-53
2022/08/20 04:08:30;;;;;;;32.72;18.17;;;;;;;;;;6221536;28;20212;-52
2022/08/20 04:11:32;;;;;;;31.83;18.77;;;;;;;;;;6221744;28;20071;-59
2022/08/20 04:14:35;;;;;;;;;;;;;;;;;;6208468;28;20551;-52
2022/08/20 04:17:38;;;;;;;36.13;19.13;;;;;;;;;;6221618;28;19921;-53
2022/08/20 04:20:41;;;;;;;37.15;20.02;;;;;;;;;;6223112;28;20184;-51
2022/08/20 04:23:42;;;;;;;33.83;17.88;;;;;;;;;;6223914;28;20070;-51
2022/08/20 04:26:42;;;;;;;31.87;18.23;;;;;;;;;;6220279;28;20188;-50
2022/08/20 04:29:43;;;;;;;32.73;17.10;;;;;;;;;;6219785;28;20061;-53
2022/08/20 04:32:44;;;;;;;30.10;16.98;;;;;;;;;;6222830;28;20038;-49
2022/08/20 04:35:45;;;;;;;30.73;16.93;;;;;;;;;;6222795;28;20075;-54
2022/08/20 04:38:45;;;;;;;33.03;18.75;;;;;;;;;;6220948;28;20112;-53
2022/08/20 04:41:46;;;;;;;30.83;18.90;;;;;;;;;;6219593;28;20678;-54
2022/08/20 04:44:47;;;;;;;36.28;19.15;;;;;;;;;;6220214;28;20180;-55
2022/08/20 04:47:48;;;;;;;31.23;18.47;;;;;;;;;;6220669;28;20046;-56
2022/08/20 04:50:51;;;;;;;37.17;19.38;;;;;;;;;;6216639;28;20041;-52
2022/08/20 04:53:52;;;;;;;36.47;19.23;;;;;;;;;;6219243;28;20378;-52
2022/08/20 04:56:53;;;;;;;;;;;;;;;;;;6217769;28;20119;-53
2022/08/20 04:59:54;;;;;;;34.08;19.85;;;;;;;;;;6217864;28;20372;-54
2022/08/20 05:02:54;;;;;;;42.63;22.07;;;;;;;;;;6220039;28;20041;-52
2022/08/20 05:05:56;;;;;;;39.83;20.90;;;;;;;;;;6222397;28;20403;-53
2022/08/20 05:08:57;;;;;;;;;;;;;;;;;;6202239;28;20488;-51
2022/08/20 05:11:58;;;;;;;39.07;19.90;;;;;;;;;;6218656;28;20451;-50
2022/08/20 05:14:59;;;;;;;40.17;22.00;;;;;;;;;;6225729;28;20041;-53
2022/08/20 05:18:04;;;;;;;41.90;21.30;;;;;;;;;;6219470;28;20046;-49
2022/08/20 05:21:05;;;;;;;42.78;22.48;;;;;;;;;;6229070;28;20049;-50
2022/08/20 05:24:06;;;;;;;37.70;22.03;;;;;;;;;;6222232;28;20401;-50
2022/08/20 05:27:08;;;;;;;38.50;22.73;;;;;;;;;;6221043;28;20416;-53
2022/08/20 05:30:10;;;;;;;41.03;21.95;;;;;;;;;;6218637;28;20042;-57
2022/08/20 05:33:16;;;;;;;41.50;23.30;;;;;;;;;;6220291;28;20115;-57
2022/08/20 05:36:17;;;;;;;42.70;22.27;;;;;;;;;;6221720;28;20061;-57
2022/08/20 05:39:19;;;;;;;40.70;23.00;;;;;;;;;;6200008;28;20884;-55
2022/08/20 05:42:20;;;;;;;40.83;23.08;;;;;;;;;;6219329;28;20048;-56
2022/08/20 05:45:21;;;;;;;40.77;21.73;;;;;;;;;;6222784;28;20049;-53
2022/08/20 05:48:24;;;;;;;44.03;23.27;;;;;;;;;;6218564;28;20306;-55
2022/08/20 05:51:25;;;;;;;42.75;22.23;;;;;;;;;;6220176;28;20053;-55
2022/08/20 05:54:25;;;;;;;43.03;22.87;;;;;;;;;;6220639;28;20056;-57
2022/08/20 05:57:26;;;;;;;38.92;22.15;;;;;;;;;;6220904;28;20057;-58
2022/08/20 06:00:28;;;;;;;40.57;22.80;;;;;;;;;;6220428;28;20042;-60
2022/08/20 06:06:50;;;;;;;43.67;24.35;;;;;;;;;;6223508;28;20045;-55
2022/08/20 06:09:51;;;;;;;42.75;22.58;;;;;;;;;;6222403;28;20576;-55
2022/08/20 06:12:52;;;;;;;38.43;22.70;;;;;;;;;;6224947;28;20038;-58
2022/08/20 06:15:52;;;;;;;40.90;23.30;;;;;;;;;;6228190;28;20033;-54
2022/08/20 06:18:53;;;;;;;41.07;23.37;;;;;;;;;;6220978;28;20037;-51
2022/08/20 06:21:55;;;;;;;41.47;22.93;;;;;;;;;;6220105;28;20466;-53
2022/08/20 06:24:55;;;;;;;43.08;23.70;;;;;;;;;;6220192;28;20089;-53
2022/08/20 06:27:56;;;;;;;43.45;23.55;;;;;;;;;;6218721;28;20060;-53
2022/08/20 06:30:57;;;;;;;43.13;23.83;;;;;;;;;;6223785;28;20041;-58
2022/08/20 06:33:58;;;;;;;41.57;21.77;;;;;;;;;;6231704;28;20091;-53
2022/08/20 06:36:58;;;;;;;38.77;22.23;;;;;;;;;;6237493;28;20048;-54
2022/08/20 06:40:02;;;;;;;36.93;20.60;;;;;;;;;;6233659;28;20038;-52
2022/08/20 06:43:02;;;;;;;38.65;20.65;;;;;;;;;;6232907;28;20290;-55
2022/08/20 06:46:03;;;;;;;35.20;19.30;;;;;;;;;;6225764;28;20049;-50
2022/08/20 06:49:06;;;;;;;41.42;20.92;;;;;;;;;;6249351;28;20059;-55
2022/08/20 06:52:07;;;;;;;39.85;20.98;;;;;;;;;;6248007;28;20147;-53
2022/08/20 06:55:09;;;;;;;34.92;20.10;;;;;;;;;;6241610;28;20408;-50
2022/08/20 06:58:11;;;;;;;37.08;19.92;;;;;;;;;;6238046;28;20080;-52
2022/08/20 07:01:12;;;;;;;34.60;19.38;;;;;;;;;;6237184;28;20038;-54
2022/08/20 07:04:14;;;;;;;32.95;18.75;;;;;;;;;;6240018;28;20568;-57
2022/08/20 07:07:19;;;;;;;38.95;20.17;;;;;;;;;;6236609;28;20160;-48
2022/08/20 07:10:21;;;;;;;35.10;18.80;;;;;;;;;;6239339;28;20038;-62
2022/08/20 07:13:21;;;;;;;34.92;18.25;;;;;;;;;;6239406;28;20133;-50
2022/08/20 07:16:23;;;;;;;33.07;19.67;;;;;;;;;;6237056;28;20049;-55
2022/08/20 07:19:23;;;;;;;33.97;19.13;;;;;;;;;;6239089;28;20045;-52
2022/08/20 07:22:24;;;;;;;34.80;18.60;;;;;;;;;;6236801;28;20084;-57
2022/08/20 07:25:24;;;;;;;32.53;18.73;;;;;;;;;;6238417;28;20153;-54
2022/08/20 07:28:31;;;;;;;34.13;19.58;;;;;;;;;;6237930;28;20144;-54
2022/08/20 07:34:50;;;;;;;33.70;18.67;;;;;;;;;;6221410;28;20044;-54
2022/08/20 07:37:53;;;;;;;35.40;19.57;;;;;;;;;;6222360;28;20030;-50
2022/08/20 07:40:57;;;;;;;40.60;19.40;;;;;;;;;;6224988;28;20859;-53
2022/08/20 07:43:58;;;;;;;36.10;19.10;;;;;;;;;;6223071;28;20049;-53
2022/08/20 07:46:59;;;;;;;33.37;19.80;;;;;;;;;;6224641;28;20045;-52
2022/08/20 07:49:59;;;;;;;38.57;20.30;;;;;;;;;;6223234;28;20449;-54
2022/08/20 07:53:00;;;;;;;32.50;18.37;;;;;;;;;;6222094;28;20292;-56
2022/08/20 07:56:05;;;;;;;31.20;18.10;;;;;;;;;;6220426;28;20123;-54
2022/08/20 07:59:06;;;;;;;33.92;17.10;;;;;;;;;;6226493;28;20076;-56
2022/08/20 08:02:06;;;;;;;38.23;18.67;;;;;;;;;;6224595;28;20057;-53
2022/08/20 08:05:10;;;;;;;31.10;18.63;;;;;;;;;;6220278;28;20497;-57
2022/08/20 08:08:14;;;;;;;33.90;18.75;;;;;;;;;;6222515;28;20145;-54
2022/08/20 08:11:15;;;;;;;34.83;18.13;;;;;;;;;;6227437;28;20049;-54
2022/08/20 08:14:22;;;;;;;31.45;18.10;;;;;;;;;;6221649;28;20091;-53
2022/08/20 08:17:22;;;;;;;37.17;17.35;;;;;;;;;;6223901;28;20072;-54
2022/08/20 08:20:23;;;;;;;33.47;17.53;;;;;;;;;;6224678;28;20054;-53
2022/08/20 08:23:24;;;;;;;32.63;17.55;;;;;;;;;;6224938;28;20558;-53
2022/08/20 08:26:27;;;;;;;30.30;17.00;;;;;;;;;;6220793;28;20053;-57
2022/08/20 08:29:28;;;;;;;28.90;16.17;;;;;;;;;;6221540;28;20049;-55
2022/08/20 08:32:30;;;;;;;30.20;16.73;;;;;;;;;;6224837;28;20115;-57
2022/08/20 08:35:31;;;;;;;34.17;17.30;;;;;;;;;;6223500;28;20069;-56
2022/08/20 08:38:34;;;;;;;29.43;17.97;;;;;;;;;;6223320;28;20767;-51
2022/08/20 08:41:46;;;;;;;35.67;17.60;;;;;;;;;;6220320;28;20132;-54
2022/08/20 08:44:47;;;;;;;36.10;18.25;;;;;;;;;;6223633;28;20034;-56
2022/08/20 08:47:48;;;;;;;31.80;17.48;;;;;;;;;;6223980;28;20524;-56
2022/08/20 08:50:51;;;;;;;31.30;17.27;;;;;;;;;;6221720;28;20048;-50
2022/08/20 08:53:54;;;;;;;35.28;18.05;;;;;;;;;;6222128;28;20140;-51
2022/08/20 08:56:55;;;;;;;32.00;18.80;;;;;;;;;;6218833;28;20042;-54
2022/08/20 09:00:00;;;;;;;34.50;18.73;;;;;;;;;;6221207;28;20115;-51
2022/08/20 09:03:09;;;;;;;34.20;19.02;;;;;;;;;;6222535;28;20054;-56
2022/08/20 09:06:17;;;;;;;31.92;18.48;;;;;;;;;;6219585;28;20124;-50
2022/08/20 09:09:21;;;;;;;32.85;18.55;;;;;;;;;;6220787;28;20412;-53
2022/08/20 09:12:24;;;;;;;37.95;19.73;;;;;;;;;;6218962;28;20148;-54
2022/08/20 09:15:25;;;;;;;34.50;18.70;;;;;;;;;;6222352;28;20413;-54
2022/08/20 09:18:25;;;;;;;33.60;19.23;;;;;;;;;;6223554;28;20052;-53
2022/08/20 09:21:26;;;;;;;42.20;20.67;;;;;;;;;;6223387;28;20124;-50
2022/08/20 09:24:27;;;;;;;42.38;21.65;;;;;;;;;;6220783;28;20137;-52
2022/08/20 09:27:28;;;;;;;32.10;19.43;;;;;;;;;;6228180;28;20144;-50
2022/08/20 09:30:29;;;;;;;26.55;12.27;;;;;;;;;;6220191;28;20056;-53
2022/08/20 09:33:29;;;;;;;31.73;14.80;;;;;;;;;;6221050;28;20042;-50
2022/08/20 09:36:30;;;;;;;30.33;12.75;;;;;;;;;;6218780;28;20037;-52
2022/08/20 09:39:31;;;;;;;22.97;10.47;;;;;;;;;;6220551;28;20046;-51
2022/08/20 09:42:34;;;;;;;24.83;9.93;;;;;;;;;;6223112;28;20682;-53
2022/08/20 09:45:35;;;;;;;22.25;10.50;;;;;;;;;;6217954;28;20060;-53
2022/08/20 09:48:36;;;;;;;27.02;9.50;;;;;;;;;;6233389;28;20141;-52
2022/08/20 09:51:37;;;;;;;20.47;9.83;;;;;;;;;;6235205;28;20134;-51
2022/08/20 09:54:39;;;;;;;25.40;11.15;;;;;;;;;;6237409;28;20588;-53
2022/08/20 09:57:40;;;;;;;24.02;10.40;;;;;;;;;;6233652;28;20421;-50
2022/08/20 10:00:40;;;;;;;28.00;12.15;;;;;;;;;;6240549;28;20037;-52
2022/08/20 10:03:42;;;;;;;27.97;12.37;;;;;;;;;;6234814;28;20053;-56
2022/08/20 10:06:44;;;;;;;26.40;13.23;;;;;;;;;;6202680;28;20627;-57
2022/08/20 10:09:44;;;;;;;26.40;12.02;;;;;;;;;;6220006;28;20046;-55
2022/08/20 10:12:45;;;;;;;28.23;11.00;;;;;;;;;;6217883;28;20100;-59
2022/08/20 10:15:46;;;;;;;26.30;12.50;;;;;;;;;;6217802;28;20054;-60
2022/08/20 10:18:50;;;;;;;28.58;12.18;;;;;;;;;;6216486;28;20049;-54
2022/08/20 10:21:52;;;;;;;27.70;12.63;;;;;;;;;;6220258;28;20417;-61
2022/08/20 10:24:53;;;;;;;29.30;12.73;;;;;;;;;;6218098;28;20200;-60
2022/08/20 10:27:54;;;;;;;32.33;13.70;;;;;;;;;;6224208;28;20072;-61
2022/08/20 10:30:54;;;;;;;37.95;14.65;;;;;;;;;;6215786;28;20115;-61
2022/08/20 10:33:56;;;;;;;25.23;11.13;;;;;;;;;;6219394;28;20042;-60
2022/08/20 10:36:57;;;;;;;22.20;10.60;;;;;;;;;;6220443;28;20046;-59
2022/08/20 10:39:58;;;;;;;22.48;10.80;;;;;;;;;;6219899;28;20041;-59
2022/08/20 10:42:59;;;;;;;25.60;12.07;;;;;;;;;;6218885;28;20100;-56
2022/08/20 10:45:59;;;;;;;24.97;11.57;;;;;;;;;;6218070;28;20897;-60
2022/08/20 10:49:00;;;;;;;27.70;10.70;;;;;;;;;;6219272;28;20134;-60
2022/08/20 10:52:01;;;;;;;22.50;11.10;;;;;;;;;;6218241;28;20307;-61
2022/08/20 10:55:03;;;;;;;24.48;10.77;;;;;;;;;;6218263;28;20045;-60
2022/08/20 10:58:05;;;;;;;27.90;11.68;;;;;;;;;;6216191;28;20483;-59
2022/08/20 11:01:07;;;;;;;27.13;12.63;;;;;;;;;;6218991;28;20133;-61
2022/08/20 11:04:07;;;;;;;24.52;11.18;;;;;;;;;;6217335;28;20046;-60
2022/08/20 11:07:13;;;;;;;28.65;12.20;;;;;;;;;;6218375;28;20050;-59
2022/08/20 11:10:14;;;;;;;20.50;11.35;;;;;;;;;;6223304;28;20066;-60
2022/08/20 11:13:15;;;;;;;31.13;12.93;;;;;;;;;;6222729;28;20046;-49
2022/08/20 11:16:15;;;;;;;30.50;13.83;;;;;;;;;;6220333;28;20080;-58
2022/08/20 11:19:16;;;;;;;35.08;14.27;;;;;;;;;;6225633;28;20057;-59
2022/08/20 11:22:17;;;;;;;32.03;14.23;;;;;;;;;;6220623;28;20029;-54
2022/08/20 11:25:19;;;;;;;;;;;;;;;;;;6222906;28;20041;-58
2022/08/20 11:28:19;;;;;;;32.87;13.57;;;;;;;;;;6218733;28;19962;-52
2022/08/20 11:31:20;;;;;;;29.63;14.98;;;;;;;;;;6223147;28;20501;-56
2022/08/20 11:34:21;;;;;;;26.97;13.97;;;;;;;;;;6218415;28;20042;-55
2022/08/20 11:37:23;;;;;;;30.37;15.17;;;;;;;;;;6222423;28;20061;-61
2022/08/20 11:40:25;;;;;;;30.02;13.90;;;;;;;;;;6222454;28;20295;-63
2022/08/20 11:43:25;;;;;;;35.38;15.13;;;;;;;;;;6223766;28;20092;-54
2022/08/20 11:46:26;;;;;;;29.63;14.63;;;;;;;;;;6214141;28;20053;-59
2022/08/20 11:49:27;;;;;;;30.37;14.93;;;;;;;;;;6224162;28;20045;-53
2022/08/20 11:52:28;;;;;;;28.60;14.90;;;;;;;;;;6228402;28;20516;-51
2022/08/20 11:55:28;;;;;;;29.30;14.13;;;;;;;;;;6227066;28;20057;-53
2022/08/20 11:58:29;;;;;;;28.20;14.47;;;;;;;;;;6229467;28;20041;-54
2022/08/20 12:01:30;;;;;;;31.13;14.37;;;;;;;;;;6231161;28;20045;-51
2022/08/20 12:04:30;;;;;;;29.67;15.40;;;;;;;;;;6226196;28;20060;-50
2022/08/20 12:07:31;;;;;;;35.90;16.63;;;;;;;;;;6225129;28;20882;-52
2022/08/20 12:10:31;;;;;;;31.63;15.30;;;;;;;;;;6227098;28;20054;-49
2022/08/20 12:13:35;;;;;;;40.47;15.43;;;;;;;;;;6226558;28;20100;-51
2022/08/20 12:16:36;;;;;;;32.67;15.82;;;;;;;;;;6225650;28;20045;-50
2022/08/20 12:19:41;;;;;;;36.47;15.40;;;;;;;;;;6226318;28;20045;-53
2022/08/20 12:22:43;;;;;;;36.88;15.40;;;;;;;;;;6228043;28;20053;-63
2022/08/20 12:25:44;;;;;;;33.00;14.55;;;;;;;;;;6224009;28;20140;-52
2022/08/20 12:28:44;;;;;;;31.23;16.50;;;;;;;;;;6226977;28;20511;-58
2022/08/20 12:31:45;;;;;;;39.93;18.50;;;;;;;;;;6230941;28;20041;-52
2022/08/20 12:34:45;;;;;;;32.23;15.60;;;;;;;;;;6229396;28;20504;-55
2022/08/20 12:37:48;;;;;;;32.47;14.90;;;;;;;;;;6228378;28;20136;-54
2022/08/20 12:40:48;;;;;;;44.22;23.10;;;;;;;;;;6230466;28;20476;-57
2022/08/20 12:43:49;;;;;;;45.80;24.67;;;;;;;;;;6229279;28;20068;-52
2022/08/20 12:46:49;;;;;;;33.13;16.70;;;;;;;;;;6225750;28;20054;-56
2022/08/20 12:49:56;;;;;;;40.33;19.67;;;;;;;;;;6227906;28;20072;-56
2022/08/20 12:52:57;;;;;;;30.27;16.42;;;;;;;;;;6229485;28;20050;-62
2022/08/20 12:55:58;;;;;;;38.10;19.10;;;;;;;;;;6226504;28;20123;-58
2022/08/20 12:58:58;;;;;;;43.43;21.47;;;;;;;;;;6230575;28;20046;-55
2022/08/20 13:01:59;;;;;;;32.97;17.03;;;;;;;;;;6230344;28;20310;-57
2022/08/20 13:05:00;;;;;;;100.47;60.37;;;;;;;;;;6228487;28;20053;-60
2022/08/20 13:08:04;;;;;;;46.90;25.70;;;;;;;;;;6227793;28;21473;-60
2022/08/20 13:11:05;;;;;;;42.63;22.50;;;;;;;;;;6231329;28;20045;-62
2022/08/20 13:14:08;;;;;;;33.53;19.42;;;;;;;;;;6228892;28;20139;-61
2022/08/20 13:17:09;;;;;;;36.00;19.67;;;;;;;;;;6224365;28;20049;-57
2022/08/20 13:20:12;;;;;;;;;;;;;;;;;;6229410;28;20045;-58
2022/08/20 13:23:13;;;;;;;35.92;18.58;;;;;;;;;;6229336;28;19928;-66
2022/08/20 13:26:13;;;;;;;34.03;16.77;;;;;;;;;;6224400;28;20046;-56
2022/08/20 13:29:15;;;;;;;34.50;18.47;;;;;;;;;;6228176;28;20058;-57
2022/08/20 13:32:16;;;;;;;37.97;16.63;;;;;;;;;;6226443;28;20045;-58
2022/08/20 13:35:18;;;;;;;34.20;16.83;;;;;;;;;;6224192;28;20057;-60
2022/08/20 13:38:18;;;;;;;37.90;23.38;;;;;;;;;;6225125;28;20172;-63
2022/08/20 13:41:19;;;;;;;33.20;16.70;;;;;;;;;;6222625;28;20049;-58
2022/08/20 13:44:19;;;;;;;33.47;17.40;;;;;;;;;;6221759;28;20557;-58
2022/08/20 13:47:29;;;;;;;38.67;20.97;;;;;;;;;;6220550;28;20064;-58
2022/08/20 13:50:30;;;;;;;34.67;15.13;;;;;;;;;;6225595;28;20041;-58
2022/08/20 13:53:30;;;;;;;35.77;17.87;;;;;;;;;;6225854;28;20060;-59
2022/08/20 13:56:31;;;;;;;34.60;16.50;;;;;;;;;;6220499;28;20874;-58
2022/08/20 13:59:37;;;;;;;31.57;16.70;;;;;;;;;;6220423;28;20053;-64
2022/08/20 14:02:39;;;;;;;36.33;17.13;;;;;;;;;;6218205;28;20054;-56
2022/08/20 14:05:40;;;;;;;40.75;20.88;;;;;;;;;;6216936;28;20041;-59
2022/08/20 14:08:41;;;;;;;33.90;17.87;;;;;;;;;;6218537;28;20199;-60
2022/08/20 14:11:41;;;;;;;40.70;22.13;;;;;;;;;;6220311;28;20046;-62
2022/08/20 14:14:42;;;;;;;37.50;17.43;;;;;;;;;;6220867;28;20179;-57
2022/08/20 14:17:53;;;;;;;35.65;19.27;;;;;;;;;;6221202;28;20095;-55
2022/08/20 14:20:54;;;;;;;35.72;17.58;;;;;;;;;;6223100;28;20041;-66
2022/08/20 14:23:56;;;;;;;31.57;17.20;;;;;;;;;;6224231;28;20048;-67
2022/08/20 14:26:57;;;;;;;35.55;17.05;;;;;;;;;;6219996;28;20053;-65
2022/08/20 14:29:59;;;;;;;29.63;17.63;;;;;;;;;;6225825;28;20045;-60
2022/08/20 14:33:00;;;;;;;33.10;16.63;;;;;;;;;;6227168;28;20560;-58
2022/08/20 14:36:00;;;;;;;34.23;17.07;;;;;;;;;;6224037;28;20079;-62
2022/08/20 14:39:01;;;;;;;28.07;16.97;;;;;;;;;;6224598;28;20457;-68
2022/08/20 14:42:02;;;;;;;39.97;21.90;;;;;;;;;;6226495;28;20057;-70
2022/08/20 14:45:05;;;;;;;40.90;20.05;;;;;;;;;;6229983;28;20049;-56
2022/08/20 14:48:08;;;;;;;30.92;16.65;;;;;;;;;;6230593;28;20459;-61
2022/08/20 14:51:09;;;;;;;35.90;16.20;;;;;;;;;;6231340;28;20087;-55
2022/08/20 14:54:10;;;;;;;34.80;17.38;;;;;;;;;;6231385;28;20042;-63
2022/08/20 14:57:12;;;;;;;48.97;24.35;;;;;;;;;;6228306;28;20088;-58
2022/08/20 15:00:20;;;;;;;30.20;14.85;;;;;;;;;;6226992;28;20041;-59
2022/08/20 15:03:22;;;;;;;29.75;14.73;;;;;;;;;;6226848;28;20148;-62
2022/08/20 15:06:23;;;;;;;28.05;14.40;;;;;;;;;;6222609;28;20045;-58
2022/08/20 15:09:24;;;;;;;28.43;14.47;;;;;;;;;;6225835;28;20484;-53
2022/08/20 15:12:25;;;;;;;24.87;12.60;;;;;;;;;;6203824;28;20049;-68
2022/08/20 15:15:26;;;;;;;;;;;;;;;;;;6224931;28;20488;-55
2022/08/20 15:18:28;;;;;;;24.77;12.85;;;;;;;;;;6223808;28;19936;-56
2022/08/20 15:21:28;;;;;;;28.17;12.80;;;;;;;;;;6230745;28;20096;-56
2022/08/20 15:24:29;;;;;;;32.80;17.63;;;;;;;;;;6230038;28;20057;-58
2022/08/20 15:27:30;;;;;;;37.00;18.13;;;;;;;;;;6231688;28;20439;-66
2022/08/20 15:30:32;;;;;;;31.93;16.03;;;;;;;;;;6228920;28;20041;-61
2022/08/20 15:33:32;;;;;;;40.25;21.13;;;;;;;;;;6231985;28;20037;-59
2022/08/20 15:36:33;;;;;;;50.43;28.57;;;;;;;;;;6227698;28;20128;-64
2022/08/20 15:39:34;;;;;;;33.67;17.63;;;;;;;;;;6226287;28;20554;-58
2022/08/20 15:42:35;;;;;;;31.87;16.53;;;;;;;;;;6228145;28;20095;-63
2022/08/20 15:45:36;;;;;;;26.42;14.23;;;;;;;;;;6221568;28;20050;-63
2022/08/20 15:48:40;;;;;;;34.50;14.53;;;;;;;;;;6223089;28;21366;-63
2022/08/20 15:51:47;;;;;;;32.53;15.05;;;;;;;;;;6224387;28;20137;-61
2022/08/20 15:54:47;;;;;;;32.47;15.25;;;;;;;;;;6223449;28;20141;-59
2022/08/20 15:58:04;;;;;;;34.28;15.68;;;;;;;;;;6226720;28;20044;-60
2022/08/20 16:01:17;;;;;;;30.35;15.23;;;;;;;;;;6224919;28;20049;-63
2022/08/20 16:04:48;;;;;;;23.88;13.43;;;;;;;;;;6226321;28;20750;-61
2022/08/20 16:08:06;;;;;;;23.73;12.53;;;;;;;;;;6219707;28;20057;-62
2022/08/20 16:11:15;;;;;;;26.63;13.35;;;;;;;;;;6219303;28;20420;-60
2022/08/20 16:14:22;;;;;;;26.67;14.35;;;;;;;;;;6217253;28;20123;-61
2022/08/20 16:17:44;;;;;;;23.80;13.77;;;;;;;;;;6220973;28;20053;-61
2022/08/20 16:20:48;;;;;;;23.50;13.60;;;;;;;;;;6221957;28;20042;-60
2022/08/20 16:23:49;;;;;;;23.70;13.77;;;;;;;;;;6220431;28;20061;-64
2022/08/20 16:27:03;;;;;;;33.10;16.63;;;;;;;;;;6219148;28;20041;-62
2022/08/20 16:30:14;;;;;;;34.90;16.42;;;;;;;;;;6220675;28;20102;-59
2022/08/20 16:33:33;;;;;;;30.65;15.00;;;;;;;;;;6225707;28;20050;-59
2022/08/20 16:36:39;;;;;;;28.70;13.63;;;;;;;;;;6221979;28;20127;-62
2022/08/20 16:39:47;;;;;;;27.83;14.63;;;;;;;;;;6223031;28;20045;-61
2022/08/20 16:42:50;;;;;;;29.50;15.30;;;;;;;;;;6224962;28;20144;-60
2022/08/20 16:45:59;;;;;;;28.67;15.18;;;;;;;;;;6224448;28;20629;-63
2022/08/20 16:49:10;;;;;;;26.10;15.15;;;;;;;;;;6225705;28;20148;-60
2022/08/20 16:52:10;;;;;;;37.15;22.15;;;;;;;;;;6226239;28;20056;-62
2022/08/20 16:55:12;;;;;;;28.23;15.40;;;;;;;;;;6225537;28;20072;-60
2022/08/20 16:58:13;;;;;;;33.85;17.90;;;;;;;;;;6226144;28;20516;-63
2022/08/20 17:01:14;;;;;;;26.60;14.32;;;;;;;;;;6218935;28;20069;-59
2022/08/20 17:04:20;;;;;;;29.53;16.73;;;;;;;;;;6222411;28;20038;-59
2022/08/20 17:07:40;;;;;;;28.90;16.20;;;;;;;;;;6225728;28;20137;-61
2022/08/20 17:11:04;;;;;;;80.15;49.83;;;;;;;;;;6222931;28;20036;-64
2022/08/20 17:14:17;;;;;;;64.40;39.75;;;;;;;;;;6219499;28;20053;-61
2022/08/20 17:17:30;;;;;;;22.85;13.60;;;;;;;;;;6224237;28;20050;-62
2022/08/20 17:20:43;;;;;;;31.02;15.25;;;;;;;;;;6226308;28;20041;-61
2022/08/20 17:23:48;;;;;;;23.40;13.25;;;;;;;;;;6225202;28;20041;-60
2022/08/20 17:26:57;;;;;;;27.52;13.93;;;;;;;;;;6225578;28;20053;-61
2022/08/20 17:30:22;;;;;;;27.23;15.18;;;;;;;;;;6224312;28;21130;-59
2022/08/20 17:33:37;;;;;;;32.95;15.25;;;;;;;;;;6222735;28;20076;-65
2022/08/20 17:36:52;;;;;;;31.27;14.98;;;;;;;;;;6224915;28;20712;-63
2022/08/20 17:40:06;;;;;;;20.00;11.68;;;;;;;;;;6226914;28;20081;-62
2022/08/20 17:43:09;;;;;;;24.05;12.32;;;;;;;;;;6225743;28;20049;-65
2022/08/20 17:46:15;;;;;;;20.48;12.20;;;;;;;;;;6225877;28;20470;-59
2022/08/20 17:49:28;;;;;;;27.65;15.35;;;;;;;;;;6226454;28;20065;-61
2022/08/20 17:52:37;;;;;;;21.70;12.25;;;;;;;;;;6225833;28;20231;-62
2022/08/20 17:55:39;;;;;;;22.58;13.70;;;;;;;;;;6225319;28;20053;-64